Time;durP1;ratioP1;P1;durP2;ratioP2;P2;SDS_P1;SDS_P2;PMS_P1;PMS_P2;Temp;Humidity;BMP_temperature;BMP_pressure;BME280_temperature;BME280_humidity;BME280_pressure;Samples;Min_cycle;Max_cycle;Signal;HPM_P1;HPM_P2
2023/07/01 00:02:40;;;;;;;4.67;4.47;;;17.20;76.20;;;;;;6236576;28;20792;-81
2023/07/01 00:05:46;;;;;;;5.50;5.20;;;17.20;76.20;;;;;;6225274;28;20892;-82
2023/07/01 00:08:49;;;;;;;5.27;4.80;;;17.20;76.30;;;;;;6222046;28;20253;-79
2023/07/01 00:11:53;;;;;;;5.17;4.87;;;17.20;76.20;;;;;;6230310;28;20235;-82
2023/07/01 00:14:56;;;;;;;4.73;4.63;;;17.20;76.20;;;;;;6235609;28;20249;-82
2023/07/01 00:17:59;;;;;;;4.17;4.00;;;17.20;76.10;;;;;;6229574;28;20321;-82
2023/07/01 00:21:04;;;;;;;5.50;5.00;;;17.30;76.10;;;;;;6238347;28;20257;-79
2023/07/01 00:24:07;;;;;;;5.20;5.00;;;17.40;76.10;;;;;;6235703;28;20744;-84
2023/07/01 00:27:11;;;;;;;5.73;5.43;;;17.40;76.10;;;;;;6232218;28;20234;-81
2023/07/01 00:30:14;;;;;;;5.83;5.50;;;17.40;76.20;;;;;;6227629;28;20743;-83
2023/07/01 00:33:18;;;;;;;6.10;5.60;;;17.40;76.30;;;;;;6219996;28;20239;-79
2023/07/01 00:36:23;;;;;;;6.10;5.70;;;17.40;76.30;;;;;;6236334;28;20235;-82
2023/07/01 00:39:26;;;;;;;5.77;5.47;;;17.50;76.60;;;;;;6231370;28;20238;-83
2023/07/01 00:42:30;;;;;;;4.70;4.60;;;17.40;76.80;;;;;;6233225;28;20330;-82
2023/07/01 00:45:33;;;;;;;6.60;6.10;;;17.40;76.80;;;;;;6229027;28;20242;-83
2023/07/01 00:48:41;;;;;;;5.33;4.93;;;17.40;76.90;;;;;;6214497;28;20378;-80
2023/07/01 00:51:46;;;;;;;4.83;4.70;;;17.40;76.90;;;;;;6231378;28;20235;-79
2023/07/01 00:54:49;;;;;;;5.20;5.00;;;17.40;76.90;;;;;;6238214;28;20277;-79
2023/07/01 00:57:53;;;;;;;5.43;5.03;;;17.40;76.80;;;;;;6225523;28;20230;-82
2023/07/01 01:00:57;;;;;;;5.00;4.60;;;17.40;76.80;;;;;;6230017;28;20365;-81
2023/07/01 01:04:09;;;;;;;5.67;5.37;;;17.50;76.80;;;;;;6222494;28;20228;-82
2023/07/01 01:07:21;;;;;;;6.70;6.40;;;17.50;76.70;;;;;;6232675;28;20235;-81
2023/07/01 01:10:27;;;;;;;6.50;6.20;;;17.50;76.80;;;;;;6232730;28;20937;-82
2023/07/01 01:13:31;;;;;;;7.17;6.50;;;17.50;76.80;;;;;;6225995;28;20239;-80
2023/07/01 01:16:35;;;;;;;7.00;6.50;;;17.40;76.80;;;;;;6224352;28;20366;-81
2023/07/01 01:19:41;;;;;;;6.03;5.73;;;17.40;77.10;;;;;;6229689;28;20245;-79
2023/07/01 01:22:48;;;;;;;5.87;5.57;;;17.40;77.00;;;;;;6219895;28;20269;-81
2023/07/01 01:26:06;;;;;;;5.83;5.63;;;17.40;77.00;;;;;;6225398;28;20226;-82
2023/07/01 01:29:10;;;;;;;5.67;5.47;;;17.40;77.00;;;;;;6232193;28;20304;-80
2023/07/01 01:32:14;;;;;;;6.77;6.33;;;17.40;76.90;;;;;;6236734;28;20238;-82
2023/07/01 01:35:18;;;;;;;7.57;7.13;;;17.40;76.90;;;;;;6233737;28;20230;-81
2023/07/01 01:38:26;;;;;;;6.33;5.93;;;17.40;77.00;;;;;;6228871;28;20348;-81
2023/07/01 01:41:40;;;;;;;6.90;6.60;;;17.40;77.00;;;;;;6235939;28;20262;-82
2023/07/01 01:44:52;;;;;;;5.93;5.73;;;17.40;77.00;;;;;;6234056;28;20251;-81
2023/07/01 01:47:56;;;;;;;6.10;5.80;;;17.40;77.10;;;;;;6234509;28;20742;-80
2023/07/01 01:51:00;;;;;;;5.70;5.50;;;17.40;77.10;;;;;;6237371;28;20717;-81
2023/07/01 01:54:06;;;;;;;6.00;5.70;;;17.40;77.10;;;;;;6233771;28;20817;-83
2023/07/01 01:57:09;;;;;;;6.93;6.40;;;17.40;77.10;;;;;;6237031;28;20781;-82
2023/07/01 02:00:15;;;;;;;7.07;6.67;;;17.40;77.20;;;;;;6239105;28;20235;-82
2023/07/01 02:03:18;;;;;;;7.07;6.57;;;17.40;77.10;;;;;;6234567;28;20239;-81
2023/07/01 02:06:21;;;;;;;6.27;5.97;;;17.40;77.20;;;;;;6238081;28;20241;-80
2023/07/01 02:09:25;;;;;;;7.90;7.30;;;17.30;77.20;;;;;;6233399;28;20887;-81
2023/07/01 02:12:28;;;;;;;8.27;7.43;;;17.40;77.10;;;;;;6234902;28;20281;-81
2023/07/01 02:15:32;;;;;;;7.37;6.97;;;17.40;76.90;;;;;;6221851;28;20243;-80
2023/07/01 02:18:36;;;;;;;6.83;6.33;;;17.40;76.90;;;;;;6230499;28;20312;-83
2023/07/01 02:21:39;;;;;;;7.40;6.93;;;17.40;76.90;;;;;;6220765;28;20652;-81
2023/07/01 02:24:43;;;;;;;6.80;6.50;;;17.30;76.90;;;;;;6230980;28;20262;-81
2023/07/01 02:27:47;;;;;;;7.30;6.90;;;17.20;77.30;;;;;;6231749;28;20239;-83
2023/07/01 02:30:51;;;;;;;7.37;6.97;;;17.20;77.20;;;;;;6238701;28;20265;-79
2023/07/01 02:34:00;;;;;;;7.37;6.97;;;17.20;77.30;;;;;;6225077;28;20309;-79
2023/07/01 02:37:04;;;;;;;8.30;7.80;;;17.20;77.30;;;;;;6231482;28;20232;-82
2023/07/01 02:40:09;;;;;;;8.50;7.93;;;17.20;77.50;;;;;;6238078;28;20242;-83
2023/07/01 02:43:12;;;;;;;7.13;6.80;;;17.20;77.50;;;;;;6232283;28;20242;-80
2023/07/01 02:46:16;;;;;;;7.33;6.93;;;17.20;77.50;;;;;;6233259;28;20244;-80
2023/07/01 02:49:20;;;;;;;7.50;7.10;;;17.20;77.50;;;;;;6235451;28;20258;-81
2023/07/01 02:52:23;;;;;;;7.37;7.03;;;17.20;77.50;;;;;;6231787;28;20714;-81
2023/07/01 02:55:29;;;;;;;8.40;7.70;;;17.20;77.40;;;;;;6237442;28;20789;-80
2023/07/01 02:58:33;;;;;;;6.53;6.27;;;17.00;77.70;;;;;;6224747;28;20249;-80
2023/07/01 03:01:38;;;;;;;8.20;7.73;;;17.00;77.80;;;;;;6243429;28;20254;-80
2023/07/01 03:04:41;;;;;;;9.10;8.50;;;17.00;77.80;;;;;;6240020;28;20689;-80
2023/07/01 03:07:44;;;;;;;8.10;7.80;;;17.00;77.90;;;;;;6244112;28;20230;-82
2023/07/01 03:10:48;;;;;;;7.67;7.27;;;17.00;77.90;;;;;;6244514;28;20325;-82
2023/07/01 03:13:52;;;;;;;7.80;7.40;;;17.00;77.90;;;;;;6223012;28;1252933;-84
2023/07/01 03:16:57;;;;;;;9.13;8.40;;;17.00;77.90;;;;;;6261543;28;20706;-84
2023/07/01 03:20:04;;;;;;;8.27;7.67;;;17.00;77.90;;;;;;6271101;28;20234;-83
2023/07/01 03:23:07;;;;;;;9.93;9.03;;;16.90;78.00;;;;;;6275561;28;20246;-81
2023/07/01 03:26:10;;;;;;;8.77;8.10;;;16.90;78.10;;;;;;6291045;28;20246;-78
2023/07/01 03:29:13;;;;;;;8.20;7.80;;;16.90;78.20;;;;;;6293712;28;20257;-78
2023/07/01 03:32:18;;;;;;;9.53;8.73;;;16.80;78.20;;;;;;6276470;28;20236;-77
2023/07/01 03:35:21;;;;;;;10.17;9.30;;;16.80;78.30;;;;;;6301650;28;20254;-77
2023/07/01 03:38:24;;;;;;;8.27;7.77;;;16.80;78.50;;;;;;6294126;28;20230;-77
2023/07/01 03:41:27;;;;;;;8.90;8.23;;;16.70;78.50;;;;;;6297779;28;20233;-76
2023/07/01 03:44:30;;;;;;;11.00;10.00;;;16.70;78.50;;;;;;6299211;28;20218;-77
2023/07/01 03:47:35;;;;;;;10.73;9.93;;;16.70;78.60;;;;;;6272648;28;20223;-79
2023/07/01 03:50:39;;;;;;;8.20;7.60;;;16.70;78.70;;;;;;6270008;28;20238;-78
2023/07/01 03:53:56;;;;;;;9.13;8.63;;;16.70;78.80;;;;;;6270983;28;20245;-77
2023/07/01 03:56:59;;;;;;;8.93;8.33;;;16.70;78.70;;;;;;6260718;28;20238;-75
2023/07/01 04:00:08;;;;;;;9.60;8.97;;;16.70;78.70;;;;;;6269334;28;20219;-76
2023/07/01 04:03:12;;;;;;;11.47;10.60;;;16.70;78.70;;;;;;6262541;28;20250;-76
2023/07/01 04:06:16;;;;;;;9.13;8.63;;;16.80;78.50;;;;;;6260380;28;20227;-77
2023/07/01 04:09:20;;;;;;;10.07;9.37;;;16.80;78.40;;;;;;6259663;28;20214;-77
2023/07/01 04:12:24;;;;;;;10.07;9.07;;;16.80;78.30;;;;;;6264879;28;20238;-78
2023/07/01 04:15:27;;;;;;;9.33;8.63;;;16.90;78.20;;;;;;6263753;28;20250;-75
2023/07/01 04:18:32;;;;;;;9.83;8.90;;;16.90;78.20;;;;;;6236178;28;20235;-79
2023/07/01 04:21:35;;;;;;;9.80;9.07;;;17.00;78.00;;;;;;6228047;28;20238;-81
2023/07/01 04:24:38;;;;;;;8.40;8.00;;;17.00;77.80;;;;;;6236321;28;20750;-80
2023/07/01 04:27:42;;;;;;;9.03;8.57;;;17.10;77.80;;;;;;6237062;28;20233;-80
2023/07/01 04:30:46;;;;;;;9.47;8.50;;;17.20;77.60;;;;;;6251873;28;20242;-77
2023/07/01 04:33:51;;;;;;;10.33;9.43;;;17.20;76.90;;;;;;6257217;28;20237;-83
2023/07/01 04:36:54;;;;;;;9.70;9.00;;;17.20;76.00;;;;;;6258389;28;20330;-79
2023/07/01 04:39:57;;;;;;;10.43;9.43;;;17.20;75.70;;;;;;6226564;28;20319;-78
2023/07/01 04:43:00;;;;;;;10.00;9.23;;;17.20;75.40;;;;;;6231260;28;20323;-80
2023/07/01 04:46:03;;;;;;;8.40;7.90;;;17.20;75.40;;;;;;6227197;28;20632;-80
2023/07/01 04:49:09;;;;;;;9.17;8.67;;;17.20;75.00;;;;;;6231053;28;20231;-80
2023/07/01 04:52:14;;;;;;;7.80;7.37;;;17.20;74.90;;;;;;6231074;28;20697;-79
2023/07/01 04:55:18;;;;;;;7.60;7.20;;;17.40;74.90;;;;;;6226741;28;20312;-79
2023/07/01 04:58:22;;;;;;;8.73;8.23;;;17.50;74.90;;;;;;6223189;28;20239;-80
2023/07/01 05:01:25;;;;;;;8.17;7.57;;;17.50;73.60;;;;;;6236062;28;20242;-80
2023/07/01 05:04:29;;;;;;;9.13;8.43;;;17.50;73.60;;;;;;6224121;28;20241;-78
2023/07/01 05:07:33;;;;;;;8.90;8.33;;;17.60;73.50;;;;;;6236791;28;20246;-81
2023/07/01 05:10:36;;;;;;;8.63;7.83;;;17.80;73.30;;;;;;6236462;28;20284;-79
2023/07/01 05:13:39;;;;;;;9.40;8.50;;;18.10;72.50;;;;;;6232260;28;20764;-81
2023/07/01 05:16:42;;;;;;;8.67;8.00;;;18.30;71.20;;;;;;6237510;28;20721;-81
2023/07/01 05:19:47;;;;;;;7.60;7.30;;;18.70;70.00;;;;;;6231986;28;20242;-79
2023/07/01 05:22:50;;;;;;;7.17;6.87;;;18.80;69.20;;;;;;6257721;28;20227;-78
2023/07/01 05:25:53;;;;;;;7.53;6.93;;;18.90;68.80;;;;;;6268313;28;20245;-79
2023/07/01 05:28:58;;;;;;;6.97;6.57;;;19.20;68.40;;;;;;6269916;28;20235;-78
2023/07/01 05:32:04;;;;;;;7.47;7.00;;;19.30;67.50;;;;;;6272518;28;20241;-77
2023/07/01 05:35:09;;;;;;;8.07;7.33;;;19.30;67.20;;;;;;6263959;28;20225;-77
2023/07/01 05:38:14;;;;;;;7.30;6.80;;;19.50;66.90;;;;;;6264881;28;20224;-77
2023/07/01 05:41:17;;;;;;;7.93;7.40;;;19.70;66.60;;;;;;6267630;28;20235;-76
2023/07/01 05:44:20;;;;;;;7.97;7.20;;;19.50;66.30;;;;;;6258097;28;20231;-78
2023/07/01 05:47:23;;;;;;;7.47;7.07;;;19.40;66.40;;;;;;6243145;28;20223;-76
2023/07/01 05:50:28;;;;;;;7.83;7.27;;;19.50;65.80;;;;;;6245043;28;20223;-77
2023/07/01 05:53:31;;;;;;;7.93;7.23;;;19.40;66.50;;;;;;6264454;28;20261;-80
2023/07/01 05:56:34;;;;;;;6.87;6.53;;;19.50;66.20;;;;;;6243666;28;20227;-76
2023/07/01 05:59:37;;;;;;;8.00;7.27;;;19.50;66.60;;;;;;6261211;28;20265;-80
2023/07/01 06:02:40;;;;;;;7.83;7.23;;;20.10;66.40;;;;;;6259534;28;20269;-80
2023/07/01 06:05:45;;;;;;;7.47;6.87;;;20.30;64.10;;;;;;6267351;28;20239;-78
2023/07/01 06:08:49;;;;;;;6.53;6.10;;;20.50;64.40;;;;;;6251740;28;20265;-82
2023/07/01 06:11:52;;;;;;;6.47;6.17;;;20.90;63.70;;;;;;6237943;28;20269;-79
2023/07/01 06:14:55;;;;;;;6.27;5.73;;;21.20;62.60;;;;;;6243011;28;20245;-80
2023/07/01 06:17:59;;;;;;;6.07;5.77;;;21.60;62.30;;;;;;6235025;28;20243;-80
2023/07/01 06:21:06;;;;;;;6.77;6.20;;;21.60;61.00;;;;;;6226125;28;20835;-79
2023/07/01 06:24:09;;;;;;;6.07;5.60;;;21.60;60.30;;;;;;6231285;28;20249;-79
2023/07/01 06:27:12;;;;;;;6.10;5.80;;;21.70;60.70;;;;;;6234861;28;20238;-79
2023/07/01 06:30:16;;;;;;;6.93;6.50;;;21.90;59.80;;;;;;6235583;28;20231;-81
2023/07/01 06:33:19;;;;;;;5.93;5.43;;;21.70;59.80;;;;;;6231509;28;20254;-79
2023/07/01 06:36:24;;;;;;;5.63;5.17;;;21.70;59.70;;;;;;6238770;28;20821;-80
2023/07/01 06:39:27;;;;;;;5.63;5.23;;;21.50;59.70;;;;;;6228425;28;20341;-79
2023/07/01 06:42:30;;;;;;;5.77;5.47;;;21.70;59.20;;;;;;6223430;28;20758;-79
2023/07/01 06:45:34;;;;;;;5.67;5.17;;;21.80;58.80;;;;;;6230771;28;20239;-79
2023/07/01 06:48:38;;;;;;;5.10;4.70;;;21.90;58.80;;;;;;6233946;28;20308;-79
2023/07/01 06:51:43;;;;;;;5.50;5.17;;;22.00;60.00;;;;;;6235608;28;20246;-81
2023/07/01 06:54:46;;;;;;;5.30;5.00;;;22.10;59.30;;;;;;6231090;28;20235;-78
2023/07/01 06:57:51;;;;;;;5.63;5.20;;;22.40;59.80;;;;;;6232717;28;20238;-81
2023/07/01 07:00:55;;;;;;;5.47;5.17;;;22.50;57.90;;;;;;6231322;28;20699;-81
2023/07/01 07:03:58;;;;;;;5.67;5.37;;;22.20;57.60;;;;;;6237443;28;20244;-80
2023/07/01 07:07:03;;;;;;;5.83;5.17;;;22.10;58.20;;;;;;6228449;28;20242;-80
2023/07/01 07:10:09;;;;;;;5.40;5.00;;;21.90;58.70;;;;;;6225979;28;20242;-80
2023/07/01 07:13:12;;;;;;;4.77;4.57;;;22.40;58.70;;;;;;6229392;28;20254;-81
2023/07/01 07:16:15;;;;;;;4.70;4.40;;;22.70;56.70;;;;;;6231533;28;20242;-78
2023/07/01 07:19:18;;;;;;;4.50;4.10;;;22.60;55.30;;;;;;6223916;28;20235;-79
2023/07/01 07:22:23;;;;;;;4.57;4.20;;;22.50;55.50;;;;;;6224561;28;20254;-79
2023/07/01 07:25:26;;;;;;;3.67;3.47;;;22.20;55.50;;;;;;6221560;28;20299;-78
2023/07/01 07:28:29;;;;;;;3.87;3.60;;;22.10;54.10;;;;;;6229489;28;20836;-77
2023/07/01 07:31:33;;;;;;;3.73;3.53;;;22.00;54.00;;;;;;6224374;28;20289;-77
2023/07/01 07:34:36;;;;;;;3.33;3.20;;;22.00;53.20;;;;;;6220152;28;20241;-77
2023/07/01 07:37:40;;;;;;;4.50;3.60;;;21.80;53.00;;;;;;6232030;28;20274;-76
2023/07/01 07:40:44;;;;;;;3.60;3.30;;;21.70;53.90;;;;;;6222264;28;20322;-77
2023/07/01 07:43:47;;;;;;;3.47;3.37;;;21.90;54.30;;;;;;6225374;28;20235;-77
2023/07/01 07:46:50;;;;;;;4.60;4.17;;;22.30;53.70;;;;;;6228549;28;20239;-75
2023/07/01 07:49:53;;;;;;;3.37;3.27;;;22.30;53.10;;;;;;6239059;28;20909;-80
2023/07/01 07:52:58;;;;;;;3.27;3.07;;;22.10;52.20;;;;;;6244798;28;20239;-77
2023/07/01 07:56:01;;;;;;;3.47;3.17;;;22.00;52.30;;;;;;6234015;28;20235;-76
2023/07/01 07:59:04;;;;;;;3.63;3.20;;;22.00;51.80;;;;;;6225992;28;20632;-76
2023/07/01 08:02:08;;;;;;;3.73;3.43;;;22.10;51.90;;;;;;6230577;28;20317;-77
2023/07/01 08:05:16;;;;;;;5.00;3.40;;;22.10;51.60;;;;;;6235510;28;20373;-75
2023/07/01 08:08:21;;;;;;;3.10;2.90;;;22.10;51.00;;;;;;6229136;28;20239;-78
2023/07/01 08:11:24;;;;;;;3.23;3.03;;;22.20;51.90;;;;;;6225797;28;20262;-76
2023/07/01 08:14:27;;;;;;;3.67;3.50;;;22.00;51.20;;;;;;6229776;28;20250;-76
2023/07/01 08:17:30;;;;;;;4.10;4.00;;;22.10;51.60;;;;;;6224660;28;20621;-77
2023/07/01 08:20:33;;;;;;;3.93;3.63;;;22.10;51.50;;;;;;6226243;28;20235;-78
2023/07/01 08:23:38;;;;;;;3.37;3.17;;;22.10;50.40;;;;;;6232241;28;20262;-76
2023/07/01 08:26:41;;;;;;;5.37;5.07;;;21.70;51.50;;;;;;6219606;28;20254;-77
2023/07/01 08:29:44;;;;;;;3.07;2.83;;;21.90;51.80;;;;;;6217346;28;20238;-77
2023/07/01 08:32:47;;;;;;;3.37;3.10;;;22.00;49.40;;;;;;6222872;28;20267;-77
2023/07/01 08:35:50;;;;;;;3.50;3.40;;;21.90;50.00;;;;;;6223092;28;20239;-77
2023/07/01 08:38:54;;;;;;;3.50;3.30;;;21.90;50.40;;;;;;6228757;28;20733;-77
2023/07/01 08:42:02;;;;;;;3.20;2.90;;;21.90;49.30;;;;;;6228576;28;20885;-76
2023/07/01 08:45:08;;;;;;;2.67;2.63;;;22.00;48.90;;;;;;6227672;28;20825;-77
2023/07/01 08:48:13;;;;;;;3.60;3.40;;;22.00;49.50;;;;;;6235985;28;20324;-77
2023/07/01 08:51:22;;;;;;;4.17;3.40;;;22.30;49.10;;;;;;6229085;28;21027;-78
2023/07/01 08:54:27;;;;;;;3.53;3.23;;;22.40;50.70;;;;;;6220883;28;20278;-76
2023/07/01 08:57:31;;;;;;;3.33;3.23;;;22.50;50.30;;;;;;6228146;28;20756;-77
2023/07/01 09:00:35;;;;;;;3.50;3.30;;;22.60;48.80;;;;;;6233546;28;20302;-77
2023/07/01 09:03:39;;;;;;;2.97;2.90;;;22.60;49.20;;;;;;6225595;28;20272;-75
2023/07/01 09:06:42;;;;;;;2.90;2.90;;;23.00;49.40;;;;;;6236130;28;20245;-77
2023/07/01 09:09:47;;;;;;;3.10;3.00;;;23.30;48.60;;;;;;6227664;28;20238;-76
2023/07/01 09:12:50;;;;;;;3.40;3.20;;;23.30;47.60;;;;;;6226936;28;20235;-75
2023/07/01 09:15:53;;;;;;;4.47;3.40;;;23.20;48.80;;;;;;6231909;28;20613;-77
2023/07/01 09:19:04;;;;;;;4.03;3.23;;;23.30;48.60;;;;;;6229330;28;20239;-78
2023/07/01 09:22:09;;;;;;;3.57;3.27;;;23.60;49.60;;;;;;6233669;28;20235;-80
2023/07/01 09:25:27;;;;;;;3.60;2.93;;;23.80;48.80;;;;;;6235998;28;20298;-77
2023/07/01 09:28:31;;;;;;;3.00;2.90;;;23.70;48.00;;;;;;6244263;28;20234;-76
2023/07/01 09:31:44;;;;;;;3.00;2.80;;;23.60;49.50;;;;;;6258349;28;20240;-78
2023/07/01 09:34:55;;;;;;;3.63;2.73;;;23.40;48.90;;;;;;6230210;28;20310;-77
2023/07/01 09:38:02;;;;;;;3.17;2.93;;;23.50;48.20;;;;;;6247727;28;20242;-78
2023/07/01 09:41:19;;;;;;;3.27;3.00;;;23.50;48.50;;;;;;6258274;28;20241;-78
2023/07/01 09:44:22;;;;;;;4.00;3.57;;;23.40;49.30;;;;;;6228753;28;20238;-75
2023/07/01 09:47:26;;;;;;;3.10;3.10;;;23.00;49.30;;;;;;6235625;28;20242;-76
2023/07/01 09:50:29;;;;;;;4.10;3.00;;;23.00;48.80;;;;;;6232006;28;20742;-76
2023/07/01 09:53:34;;;;;;;3.73;3.40;;;23.20;48.50;;;;;;6260638;28;20244;-77
2023/07/01 09:56:39;;;;;;;3.60;3.37;;;23.50;49.90;;;;;;6244284;28;20231;-76
2023/07/01 09:59:45;;;;;;;3.17;2.93;;;23.50;49.70;;;;;;6234569;28;20831;-76
2023/07/01 10:02:49;;;;;;;3.87;3.13;;;23.60;49.10;;;;;;6270293;28;20246;-77
2023/07/01 10:05:53;;;;;;;5.97;3.40;;;23.60;48.70;;;;;;6268400;28;20233;-76
2023/07/01 10:08:56;;;;;;;3.83;3.50;;;23.70;48.50;;;;;;6270215;28;20737;-77
2023/07/01 10:12:01;;;;;;;4.10;3.20;;;23.90;49.50;;;;;;6264996;28;20787;-77
2023/07/01 10:15:06;;;;;;;4.00;3.70;;;23.80;49.10;;;;;;6251782;28;20230;-75
2023/07/01 10:18:21;;;;;;;6.93;3.50;;;23.60;48.20;;;;;;6236350;28;20269;-76
2023/07/01 10:21:29;;;;;;;4.10;3.70;;;23.60;48.90;;;;;;6229316;28;20250;-76
2023/07/01 10:24:38;;;;;;;5.13;3.43;;;23.70;49.80;;;;;;6229373;28;20243;-75
2023/07/01 10:28:15;;;;;;;3.87;3.63;;;23.80;48.90;;;;;;6228267;28;20774;-76
2023/07/01 10:31:19;;;;;;;3.33;3.03;;;23.80;48.70;;;;;;6229645;28;20305;-74
2023/07/01 10:34:22;;;;;;;6.73;4.23;;;23.90;48.30;;;;;;6229333;28;20238;-77
2023/07/01 10:37:26;;;;;;;3.80;3.47;;;23.90;48.80;;;;;;6230492;28;20727;-74
2023/07/01 10:40:43;;;;;;;3.87;3.70;;;24.10;48.30;;;;;;6259018;28;22101;-75
2023/07/01 10:43:47;;;;;;;3.77;3.60;;;23.90;49.20;;;;;;6272840;28;20551;-77
2023/07/01 10:47:17;;;;;;;6.30;3.23;;;24.40;50.10;;;;;;6261933;28;20765;-76
2023/07/01 10:50:21;;;;;;;6.00;3.73;;;24.10;47.80;;;;;;6232520;28;20365;-75
2023/07/01 10:53:24;;;;;;;5.37;3.83;;;24.10;48.20;;;;;;6237107;28;20258;-76
2023/07/01 10:56:29;;;;;;;4.03;3.70;;;24.00;48.50;;;;;;6224884;28;20246;-75
2023/07/01 10:59:34;;;;;;;4.70;3.43;;;24.00;49.30;;;;;;6232951;28;20235;-78
2023/07/01 11:02:39;;;;;;;3.83;3.73;;;24.00;48.70;;;;;;6233118;28;20234;-77
2023/07/01 11:05:58;;;;;;;4.20;3.77;;;24.20;48.60;;;;;;6228706;28;21437;-77
2023/07/01 11:09:01;;;;;;;4.17;3.57;;;24.50;48.40;;;;;;6231205;28;20227;-76
2023/07/01 11:12:08;;;;;;;3.23;3.13;;;24.70;48.50;;;;;;6225997;28;20317;-78
2023/07/01 11:15:18;;;;;;;5.40;3.57;;;24.80;48.20;;;;;;6227177;28;20729;-78
2023/07/01 11:18:22;;;;;;;3.90;3.70;;;24.70;48.70;;;;;;6229743;28;20228;-79
2023/07/01 11:21:26;;;;;;;3.17;2.97;;;24.50;47.60;;;;;;6229103;28;20330;-79
2023/07/01 11:24:32;;;;;;;5.90;3.60;;;24.20;48.90;;;;;;6220942;28;20662;-77
2023/07/01 11:27:41;;;;;;;3.50;3.30;;;24.00;49.00;;;;;;6229498;28;20318;-76
2023/07/01 11:30:45;;;;;;;3.63;3.53;;;24.20;49.70;;;;;;6231970;28;20301;-76
2023/07/01 11:33:50;;;;;;;3.70;3.50;;;24.40;48.70;;;;;;6233584;28;20237;-75
2023/07/01 11:36:53;;;;;;;4.93;3.50;;;24.60;49.20;;;;;;6226134;28;20297;-80
2023/07/01 11:39:56;;;;;;;4.10;3.60;;;24.80;48.50;;;;;;6234154;28;20288;-77
2023/07/01 11:42:59;;;;;;;3.87;3.67;;;24.90;49.20;;;;;;6236928;28;20237;-75
2023/07/01 11:46:03;;;;;;;4.27;3.87;;;25.10;48.60;;;;;;6249534;28;20292;-76
2023/07/01 11:49:17;;;;;;;4.00;3.70;;;25.40;48.10;;;;;;6256056;28;21034;-76
2023/07/01 11:52:24;;;;;;;3.57;3.37;;;25.50;47.90;;;;;;6249047;28;20262;-76
2023/07/01 11:55:37;;;;;;;5.17;3.77;;;25.60;48.70;;;;;;6255920;28;20356;-74
2023/07/01 11:58:49;;;;;;;4.47;4.03;;;25.40;47.70;;;;;;6255135;28;20240;-80
2023/07/01 12:01:56;;;;;;;3.73;3.63;;;25.40;46.60;;;;;;6248312;28;20733;-80
2023/07/01 12:05:00;;;;;;;3.90;3.57;;;25.40;47.80;;;;;;6252281;28;20227;-80
2023/07/01 12:08:04;;;;;;;4.17;3.77;;;25.60;47.90;;;;;;6261377;28;20399;-80
2023/07/01 12:11:16;;;;;;;3.97;3.63;;;25.80;47.00;;;;;;6253272;28;20234;-80
2023/07/01 12:14:21;;;;;;;4.53;3.90;;;25.50;47.70;;;;;;6248835;28;20894;-83
2023/07/01 12:17:28;;;;;;;3.80;3.60;;;25.20;47.50;;;;;;6258908;28;20242;-78
2023/07/01 12:20:32;;;;;;;4.53;4.17;;;25.20;47.90;;;;;;6238033;28;20238;-78
2023/07/01 12:23:47;;;;;;;3.90;3.63;;;25.00;47.40;;;;;;6218911;28;20321;-78
2023/07/01 12:26:52;;;;;;;3.73;3.53;;;24.80;48.10;;;;;;6233988;28;20230;-80
2023/07/01 12:29:56;;;;;;;4.37;3.40;;;24.60;48.00;;;;;;6228279;28;20226;-79
2023/07/01 12:33:00;;;;;;;5.00;3.93;;;24.70;48.50;;;;;;6228413;28;20235;-80
2023/07/01 12:36:04;;;;;;;6.97;4.10;;;25.00;47.50;;;;;;6232740;28;20316;-80
2023/07/01 12:39:08;;;;;;;3.77;3.67;;;25.00;46.90;;;;;;6231602;28;20258;-79
2023/07/01 12:42:12;;;;;;;4.00;3.70;;;25.00;47.40;;;;;;6225222;28;20242;-79
2023/07/01 12:45:16;;;;;;;3.97;3.70;;;25.20;46.70;;;;;;6220335;28;20265;-80
2023/07/01 12:48:21;;;;;;;4.17;3.90;;;25.30;46.20;;;;;;6231251;28;20832;-80
2023/07/01 12:51:24;;;;;;;4.27;4.07;;;25.70;46.70;;;;;;6231207;28;20304;-81
2023/07/01 12:54:27;;;;;;;3.83;3.50;;;25.50;46.20;;;;;;6233835;28;20247;-80
2023/07/01 12:57:31;;;;;;;3.97;3.70;;;25.40;45.00;;;;;;6231176;28;20326;-80
2023/07/01 13:00:34;;;;;;;3.93;3.83;;;25.20;46.40;;;;;;6220957;28;20313;-79
2023/07/01 13:03:41;;;;;;;6.57;3.37;;;25.20;46.50;;;;;;6226683;28;20302;-79
2023/07/01 13:06:45;;;;;;;8.70;3.50;;;25.10;46.20;;;;;;6225240;28;20250;-78
2023/07/01 13:09:50;;;;;;;3.60;3.50;;;25.30;46.30;;;;;;6221565;28;20231;-79
2023/07/01 13:12:58;;;;;;;4.33;3.93;;;25.40;46.40;;;;;;6229179;28;20268;-79
2023/07/01 13:16:01;;;;;;;3.90;3.80;;;25.40;45.70;;;;;;6228905;28;22233;-80
2023/07/01 13:19:08;;;;;;;4.53;3.40;;;25.20;46.80;;;;;;6241573;28;20249;-78
2023/07/01 13:22:14;;;;;;;6.87;3.87;;;25.00;46.60;;;;;;6233907;28;20707;-78
2023/07/01 13:25:20;;;;;;;4.10;3.90;;;24.80;46.70;;;;;;6233348;28;20338;-78
2023/07/01 13:28:24;;;;;;;3.93;3.67;;;24.60;46.90;;;;;;6233300;28;20262;-78
2023/07/01 13:31:27;;;;;;;4.80;4.50;;;24.40;47.40;;;;;;6248351;28;20323;-80
2023/07/01 13:34:41;;;;;;;3.70;3.50;;;24.30;47.50;;;;;;6265944;28;20359;-79
2023/07/01 13:37:46;;;;;;;4.00;3.70;;;24.40;47.10;;;;;;6260614;28;20733;-79
2023/07/01 13:40:51;;;;;;;5.33;3.63;;;24.20;46.90;;;;;;6262824;28;20242;-79
2023/07/01 13:44:02;;;;;;;4.00;3.80;;;24.00;47.00;;;;;;6264731;28;20802;-78
2023/07/01 13:47:08;;;;;;;3.70;3.40;;;24.00;47.00;;;;;;6263974;28;20242;-80
2023/07/01 13:50:18;;;;;;;3.77;3.57;;;24.00;47.70;;;;;;6260098;28;20237;-80
2023/07/01 13:53:21;;;;;;;4.10;3.80;;;23.90;47.70;;;;;;6264453;28;20760;-78
2023/07/01 13:56:25;;;;;;;4.23;3.93;;;23.90;48.30;;;;;;6265973;28;20348;-78
2023/07/01 13:59:30;;;;;;;4.10;3.80;;;23.90;48.20;;;;;;6251055;28;20292;-78
2023/07/01 14:02:38;;;;;;;4.17;3.87;;;23.90;48.50;;;;;;6264113;28;20277;-80
2023/07/01 14:05:45;;;;;;;4.80;3.50;;;23.90;48.50;;;;;;6260949;28;20743;-80
2023/07/01 14:08:49;;;;;;;4.40;4.13;;;23.90;49.10;;;;;;6234043;28;20232;-79
2023/07/01 14:11:53;;;;;;;4.17;3.90;;;23.80;49.00;;;;;;6232738;28;20375;-80
2023/07/01 14:14:56;;;;;;;3.90;3.63;;;23.80;49.40;;;;;;6235106;28;20766;-79
2023/07/01 14:17:59;;;;;;;4.60;3.57;;;23.60;49.50;;;;;;6229407;28;20622;-79
2023/07/01 14:21:05;;;;;;;3.93;3.10;;;23.60;49.70;;;;;;6233181;28;20252;-80
2023/07/01 14:24:16;;;;;;;3.23;3.13;;;23.60;49.00;;;;;;6234162;28;20234;-80
2023/07/01 14:27:27;;;;;;;5.30;4.10;;;23.60;48.90;;;;;;6227126;28;20233;-82
2023/07/01 14:31:00;;;;;;;3.47;3.37;;;23.60;48.90;;;;;;6240988;28;20238;-80
2023/07/01 14:34:05;;;;;;;3.20;3.00;;;23.60;48.80;;;;;;6264634;28;20242;-82
2023/07/01 14:37:12;;;;;;;3.20;2.97;;;23.60;48.80;;;;;;6263247;28;20802;-81
2023/07/01 14:40:15;;;;;;;5.93;3.70;;;23.50;48.60;;;;;;6269371;28;20288;-78
2023/07/01 14:43:20;;;;;;;3.53;3.43;;;23.50;48.80;;;;;;6268114;28;20273;-80
2023/07/01 14:46:25;;;;;;;3.73;3.43;;;23.40;48.40;;;;;;6251043;28;20438;-79
2023/07/01 14:49:28;;;;;;;3.53;3.30;;;23.50;48.30;;;;;;6255736;28;20250;-79
2023/07/01 14:52:33;;;;;;;5.80;3.73;;;23.50;48.80;;;;;;6256690;28;20246;-78
2023/07/01 14:55:37;;;;;;;3.83;3.53;;;23.50;49.10;;;;;;6244298;28;20295;-79
2023/07/01 14:58:40;;;;;;;3.83;3.63;;;23.60;49.30;;;;;;6234957;28;20242;-80
2023/07/01 15:01:43;;;;;;;3.80;3.57;;;23.50;49.70;;;;;;6245325;28;20237;-79
2023/07/01 15:04:46;;;;;;;4.37;3.97;;;23.60;49.60;;;;;;6239760;28;20765;-79
2023/07/01 15:07:51;;;;;;;4.90;4.07;;;23.60;49.90;;;;;;6235450;28;20230;-79
2023/07/01 15:10:54;;;;;;;5.17;4.17;;;23.50;50.20;;;;;;6245945;28;20806;-79
2023/07/01 15:13:57;;;;;;;4.13;3.87;;;23.50;50.40;;;;;;6262331;28;20315;-78
2023/07/01 15:17:02;;;;;;;3.87;3.57;;;23.40;50.10;;;;;;6263730;28;20242;-80
2023/07/01 15:20:07;;;;;;;4.33;3.90;;;23.40;50.00;;;;;;6257379;28;20245;-80
2023/07/01 15:23:12;;;;;;;3.33;3.10;;;23.50;50.00;;;;;;6243489;28;20241;-80
2023/07/01 15:26:15;;;;;;;3.53;3.40;;;23.30;49.40;;;;;;6263126;28;20230;-78
2023/07/01 15:29:18;;;;;;;3.17;3.00;;;23.30;50.00;;;;;;6252556;28;20300;-79
2023/07/01 15:32:21;;;;;;;3.63;3.43;;;23.20;49.80;;;;;;6262555;28;20285;-78
2023/07/01 15:35:24;;;;;;;3.97;3.53;;;23.00;50.20;;;;;;6251809;28;20281;-77
2023/07/01 15:38:32;;;;;;;3.50;3.20;;;22.80;51.40;;;;;;6254689;28;20715;-78
2023/07/01 15:41:35;;;;;;;2.87;2.73;;;22.80;51.20;;;;;;6258174;28;20238;-77
2023/07/01 15:44:50;;;;;;;3.33;3.13;;;22.70;51.50;;;;;;6263530;28;20376;-80
2023/07/01 15:47:53;;;;;;;3.30;3.10;;;22.60;51.40;;;;;;6261776;28;20246;-77
2023/07/01 15:50:57;;;;;;;5.17;3.50;;;22.70;51.50;;;;;;6260236;28;20970;-79
2023/07/01 15:54:02;;;;;;;4.27;3.60;;;22.70;51.10;;;;;;6267715;28;20234;-78
2023/07/01 15:57:06;;;;;;;3.20;3.03;;;22.60;51.40;;;;;;6264749;28;20234;-78
2023/07/01 16:00:10;;;;;;;3.97;3.67;;;22.60;51.50;;;;;;6260768;28;20720;-78
2023/07/01 16:03:13;;;;;;;4.50;3.50;;;22.60;51.40;;;;;;6262736;28;20238;-76